MAS1037 WMKK-WMKJ
Flight info
| Callsign | MAS1037 |
|---|---|
| Flight time | 0h 30m |
| Altitude | 17000 |
| Route | RUSBU1A RUSBU Y511 TOPOR |
| Aircraft | B738/M-SDE2E3FGHIRWXY/LB1 |
Departure
| Time | 2026-05-05 23:37 |
|---|---|
| Airport | Kuala Lumpur International Airport (WMKK) |
Arrival
| Time | 2026-05-06 00:07 |
|---|---|
| Airport | Senai International Airport (WMKJ) |
| Time | Latitude | Longitude | Altitude | Speed | Heading |
|---|---|---|---|---|---|
| 2026-05-05 23:05 | 2.75004 | 101.70258 | 73 ft | 0 kts | 326° |
| 2026-05-05 23:25 | 2.75001 | 101.70261 | 73 ft | 2 kts | 326° |
| 2026-05-05 23:25 | 2.74988 | 101.70269 | 73 ft | 2 kts | 326° |
| 2026-05-05 23:25 | 2.74976 | 101.70277 | 73 ft | 2 kts | 326° |
| 2026-05-05 23:26 | 2.74962 | 101.70283 | 73 ft | 2 kts | 347° |
| 2026-05-05 23:26 | 2.74947 | 101.70286 | 73 ft | 2 kts | 1° |
| 2026-05-05 23:26 | 2.74932 | 101.70283 | 73 ft | 2 kts | 17° |
| 2026-05-05 23:26 | 2.74919 | 101.70277 | 73 ft | 2 kts | 33° |
| 2026-05-05 23:27 | 2.74907 | 101.70267 | 73 ft | 2 kts | 50° |
| 2026-05-05 23:27 | 2.74902 | 101.70261 | 73 ft | 1 kts | 59° |
| 2026-05-05 23:27 | 2.74901 | 101.70258 | 72 ft | 0 kts | 57° |
| 2026-05-05 23:30 | 2.74912 | 101.70276 | 73 ft | 10 kts | 51° |
| 2026-05-05 23:30 | 2.74987 | 101.70376 | 74 ft | 20 kts | 58° |
| 2026-05-05 23:30 | 2.75056 | 101.70494 | 78 ft | 18 kts | 65° |
| 2026-05-05 23:30 | 2.75015 | 101.70598 | 77 ft | 18 kts | 144° |
| 2026-05-05 23:31 | 2.74993 | 101.70703 | 77 ft | 17 kts | 59° |
| 2026-05-05 23:31 | 2.75062 | 101.70804 | 78 ft | 17 kts | 54° |
| 2026-05-05 23:31 | 2.75135 | 101.70912 | 77 ft | 19 kts | 56° |
| 2026-05-05 23:31 | 2.75213 | 101.71024 | 77 ft | 20 kts | 57° |
| 2026-05-05 23:32 | 2.75298 | 101.71147 | 74 ft | 22 kts | 53° |
| 2026-05-05 23:32 | 2.75392 | 101.71285 | 71 ft | 25 kts | 55° |
| 2026-05-05 23:32 | 2.75492 | 101.71439 | 68 ft | 27 kts | 56° |
| 2026-05-05 23:32 | 2.75622 | 101.71453 | 66 ft | 21 kts | 326° |
| 2026-05-05 23:33 | 2.75744 | 101.71370 | 67 ft | 21 kts | 331° |
| 2026-05-05 23:33 | 2.75867 | 101.71296 | 68 ft | 20 kts | 325° |
| 2026-05-05 23:33 | 2.75987 | 101.71210 | 67 ft | 21 kts | 325° |
| 2026-05-05 23:33 | 2.76110 | 101.71123 | 66 ft | 22 kts | 324° |
| 2026-05-05 23:34 | 2.76246 | 101.71032 | 63 ft | 24 kts | 328° |
| 2026-05-05 23:34 | 2.76390 | 101.70934 | 61 ft | 25 kts | 324° |
| 2026-05-05 23:34 | 2.76538 | 101.70835 | 61 ft | 25 kts | 327° |
| 2026-05-05 23:34 | 2.76690 | 101.70735 | 61 ft | 26 kts | 327° |
| 2026-05-05 23:35 | 2.76848 | 101.70641 | 61 ft | 26 kts | 340° |
| 2026-05-05 23:35 | 2.76939 | 101.70674 | 61 ft | 0 kts | 50° |
| 2026-05-05 23:35 | 2.76947 | 101.70683 | 61 ft | 8 kts | 49° |
| 2026-05-05 23:36 | 2.76976 | 101.70763 | 61 ft | 13 kts | 121° |
| 2026-05-05 23:36 | 2.76938 | 101.70798 | 61 ft | 0 kts | 148° |
| 2026-05-05 23:36 | 2.76896 | 101.70828 | 61 ft | 32 kts | 141° |
| 2026-05-05 23:36 | 2.76439 | 101.71134 | 60 ft | 123 kts | 144° |
| 2026-05-05 23:37 | 2.75546 | 101.71732 | 361 ft | 172 kts | 144° |
| 2026-05-05 23:37 | 2.74508 | 101.72344 | 1300 ft | 181 kts | 149° |
| 2026-05-05 23:37 | 2.73489 | 101.72955 | 2287 ft | 178 kts | 142° |
| 2026-05-05 23:37 | 2.72445 | 101.73748 | 2925 ft | 196 kts | 141° |
| 2026-05-05 23:38 | 2.71440 | 101.74699 | 3619 ft | 209 kts | 119° |
| 2026-05-05 23:38 | 2.71019 | 101.76102 | 4355 ft | 221 kts | 94° |
| 2026-05-05 23:38 | 2.70733 | 101.77637 | 5125 ft | 235 kts | 110° |
| 2026-05-05 23:38 | 2.69944 | 101.79118 | 5843 ft | 251 kts | 121° |
| 2026-05-05 23:39 | 2.69010 | 101.80634 | 6558 ft | 266 kts | 120° |
| 2026-05-05 23:39 | 2.68084 | 101.82273 | 7360 ft | 277 kts | 117° |
| 2026-05-05 23:39 | 2.67178 | 101.83993 | 8269 ft | 283 kts | 116° |
| 2026-05-05 23:39 | 2.66279 | 101.85746 | 9217 ft | 286 kts | 116° |
| 2026-05-05 23:40 | 2.65377 | 101.87515 | 10116 ft | 290 kts | 116° |
| 2026-05-05 23:40 | 2.64452 | 101.89323 | 10841 ft | 301 kts | 116° |
| 2026-05-05 23:40 | 2.63480 | 101.91221 | 11402 ft | 317 kts | 116° |
| 2026-05-05 23:40 | 2.62455 | 101.93219 | 11996 ft | 330 kts | 116° |
| 2026-05-05 23:41 | 2.61384 | 101.95303 | 12692 ft | 339 kts | 116° |
| 2026-05-05 23:41 | 2.60229 | 101.97366 | 13511 ft | 344 kts | 122° |
| 2026-05-05 23:41 | 2.58728 | 101.99239 | 14307 ft | 349 kts | 132° |
| 2026-05-05 23:41 | 2.56959 | 102.00915 | 15088 ft | 353 kts | 136° |
| 2026-05-05 23:42 | 2.55091 | 102.02522 | 15849 ft | 357 kts | 137° |
| 2026-05-05 23:42 | 2.53209 | 102.04133 | 16483 ft | 361 kts | 137° |
| 2026-05-05 23:42 | 2.51304 | 102.05800 | 16817 ft | 364 kts | 136° |
| 2026-05-05 23:42 | 2.49426 | 102.07485 | 16862 ft | 365 kts | 136° |
| 2026-05-05 23:43 | 2.47534 | 102.09212 | 16857 ft | 364 kts | 135° |
| 2026-05-05 23:43 | 2.45686 | 102.10918 | 16856 ft | 364 kts | 135° |
| 2026-05-05 23:43 | 2.43806 | 102.12663 | 16853 ft | 365 kts | 135° |
| 2026-05-05 23:43 | 2.41952 | 102.14384 | 16854 ft | 364 kts | 135° |
| 2026-05-05 23:44 | 2.40091 | 102.16110 | 16851 ft | 364 kts | 135° |
| 2026-05-05 23:44 | 2.38229 | 102.17835 | 16855 ft | 364 kts | 135° |
| 2026-05-05 23:44 | 2.36387 | 102.19544 | 16851 ft | 364 kts | 135° |
| 2026-05-05 23:44 | 2.34531 | 102.21265 | 16847 ft | 364 kts | 135° |
| 2026-05-05 23:45 | 2.32666 | 102.22990 | 16849 ft | 363 kts | 135° |
| 2026-05-05 23:45 | 2.30803 | 102.24713 | 16850 ft | 363 kts | 135° |
| 2026-05-05 23:45 | 2.28958 | 102.26424 | 16847 ft | 364 kts | 135° |
| 2026-05-05 23:45 | 2.27095 | 102.28150 | 16845 ft | 364 kts | 135° |
| 2026-05-05 23:46 | 2.25238 | 102.29868 | 16845 ft | 364 kts | 135° |
| 2026-05-05 23:46 | 2.23371 | 102.31595 | 16845 ft | 364 kts | 135° |
| 2026-05-05 23:46 | 2.21512 | 102.33316 | 16846 ft | 365 kts | 135° |
| 2026-05-05 23:46 | 2.19639 | 102.35053 | 16847 ft | 365 kts | 135° |
| 2026-05-05 23:47 | 2.17779 | 102.36776 | 16843 ft | 364 kts | 135° |
| 2026-05-05 23:47 | 2.15918 | 102.38497 | 16845 ft | 364 kts | 135° |
| 2026-05-05 23:47 | 2.14066 | 102.40209 | 16846 ft | 364 kts | 135° |
| 2026-05-05 23:47 | 2.12202 | 102.41933 | 16849 ft | 364 kts | 135° |
| 2026-05-05 23:48 | 2.10349 | 102.43648 | 16843 ft | 363 kts | 135° |
| 2026-05-05 23:48 | 2.08493 | 102.45364 | 16845 ft | 362 kts | 135° |
| 2026-05-05 23:48 | 2.06621 | 102.47095 | 16849 ft | 363 kts | 135° |
| 2026-05-05 23:48 | 2.04768 | 102.48809 | 16847 ft | 363 kts | 135° |
| 2026-05-05 23:49 | 2.02940 | 102.50543 | 16849 ft | 364 kts | 133° |
| 2026-05-05 23:49 | 2.01240 | 102.52421 | 16852 ft | 364 kts | 128° |
| 2026-05-05 23:49 | 1.99667 | 102.54401 | 16852 ft | 361 kts | 125° |
| 2026-05-05 23:49 | 1.98174 | 102.56406 | 16856 ft | 362 kts | 124° |
| 2026-05-05 23:50 | 1.96686 | 102.58436 | 16854 ft | 363 kts | 124° |
| 2026-05-05 23:50 | 1.95180 | 102.60483 | 16857 ft | 362 kts | 124° |
| 2026-05-05 23:50 | 1.93672 | 102.62516 | 16857 ft | 363 kts | 124° |
| 2026-05-05 23:50 | 1.92166 | 102.64530 | 16855 ft | 361 kts | 125° |
| 2026-05-05 23:51 | 1.90661 | 102.66535 | 16861 ft | 362 kts | 125° |
| 2026-05-05 23:51 | 1.89152 | 102.68539 | 16862 ft | 361 kts | 125° |
| 2026-05-05 23:51 | 1.87631 | 102.70558 | 16863 ft | 362 kts | 125° |
| 2026-05-05 23:51 | 1.86123 | 102.72560 | 16858 ft | 355 kts | 125° |
| 2026-05-05 23:52 | 1.84672 | 102.74483 | 16761 ft | 342 kts | 125° |
| 2026-05-05 23:52 | 1.83259 | 102.76355 | 16494 ft | 335 kts | 125° |
| 2026-05-05 23:52 | 1.81854 | 102.78218 | 16076 ft | 332 kts | 125° |
| 2026-05-05 23:52 | 1.80471 | 102.80056 | 15604 ft | 332 kts | 125° |
| 2026-05-05 23:53 | 1.79075 | 102.81913 | 15111 ft | 332 kts | 125° |
| 2026-05-05 23:53 | 1.77707 | 102.83734 | 14618 ft | 332 kts | 125° |
| 2026-05-05 23:53 | 1.76321 | 102.85578 | 14122 ft | 332 kts | 125° |
| 2026-05-05 23:53 | 1.74955 | 102.87464 | 13635 ft | 330 kts | 121° |
| 2026-05-05 23:54 | 1.73954 | 102.89486 | 13156 ft | 327 kts | 108° |
| 2026-05-05 23:54 | 1.73423 | 102.91675 | 12676 ft | 325 kts | 98° |
| 2026-05-05 23:54 | 1.73135 | 102.93913 | 12182 ft | 325 kts | 96° |
| 2026-05-05 23:54 | 1.72926 | 102.96151 | 11686 ft | 324 kts | 95° |
| 2026-05-05 23:55 | 1.72738 | 102.98377 | 11238 ft | 322 kts | 95° |
| 2026-05-05 23:55 | 1.72549 | 103.00587 | 10852 ft | 318 kts | 95° |
| 2026-05-05 23:55 | 1.72352 | 103.02793 | 10456 ft | 314 kts | 95° |
| 2026-05-05 23:55 | 1.72154 | 103.04935 | 10260 ft | 304 kts | 95° |
| 2026-05-05 23:56 | 1.71963 | 103.06978 | 10158 ft | 291 kts | 95° |
| 2026-05-05 23:56 | 1.71775 | 103.08979 | 9929 ft | 284 kts | 95° |
| 2026-05-05 23:56 | 1.71592 | 103.10922 | 9544 ft | 284 kts | 95° |
| 2026-05-05 23:56 | 1.71407 | 103.12894 | 9168 ft | 283 kts | 95° |
| 2026-05-05 23:57 | 1.71223 | 103.14849 | 8806 ft | 282 kts | 95° |
| 2026-05-05 23:57 | 1.71042 | 103.16782 | 8451 ft | 280 kts | 95° |
| 2026-05-05 23:57 | 1.70860 | 103.18716 | 8092 ft | 279 kts | 95° |
| 2026-05-05 23:57 | 1.70680 | 103.20630 | 7742 ft | 277 kts | 95° |
| 2026-05-05 23:58 | 1.70498 | 103.22545 | 7390 ft | 276 kts | 96° |
| 2026-05-05 23:58 | 1.70320 | 103.24438 | 7063 ft | 274 kts | 96° |
| 2026-05-05 23:58 | 1.70141 | 103.26337 | 6709 ft | 273 kts | 96° |
| 2026-05-05 23:58 | 1.69962 | 103.28220 | 6363 ft | 272 kts | 96° |
| 2026-05-05 23:59 | 1.69843 | 103.30089 | 6037 ft | 270 kts | 89° |
| 2026-05-05 23:59 | 1.70117 | 103.31902 | 5979 ft | 263 kts | 75° |
| 2026-05-05 23:59 | 1.70686 | 103.33668 | 5979 ft | 265 kts | 71° |
| 2026-05-05 23:59 | 1.71297 | 103.35400 | 5982 ft | 264 kts | 71° |
| 2026-05-06 00:00 | 1.71890 | 103.37140 | 5981 ft | 264 kts | 72° |
| 2026-05-06 00:00 | 1.72460 | 103.38886 | 5973 ft | 263 kts | 72° |
| 2026-05-06 00:00 | 1.73011 | 103.40608 | 5793 ft | 259 kts | 73° |
| 2026-05-06 00:00 | 1.73552 | 103.42314 | 5489 ft | 257 kts | 73° |
| 2026-05-06 00:01 | 1.74095 | 103.44022 | 5166 ft | 256 kts | 73° |
| 2026-05-06 00:01 | 1.74632 | 103.45711 | 4839 ft | 256 kts | 73° |
| 2026-05-06 00:01 | 1.75166 | 103.47396 | 4523 ft | 256 kts | 73° |
| 2026-05-06 00:01 | 1.75705 | 103.49096 | 4256 ft | 252 kts | 73° |
| 2026-05-06 00:02 | 1.76226 | 103.50729 | 4119 ft | 242 kts | 73° |
| 2026-05-06 00:02 | 1.76742 | 103.52294 | 3961 ft | 232 kts | 71° |
| 2026-05-06 00:02 | 1.77281 | 103.53773 | 3778 ft | 222 kts | 70° |
| 2026-05-06 00:02 | 1.77819 | 103.55195 | 3565 ft | 214 kts | 70° |
| 2026-05-06 00:03 | 1.78330 | 103.56559 | 3330 ft | 209 kts | 70° |
| 2026-05-06 00:03 | 1.78833 | 103.57912 | 3111 ft | 202 kts | 70° |
| 2026-05-06 00:03 | 1.79254 | 103.59210 | 2907 ft | 195 kts | 79° |
| 2026-05-06 00:03 | 1.79175 | 103.60521 | 2714 ft | 188 kts | 113° |
| 2026-05-06 00:04 | 1.78361 | 103.61511 | 2541 ft | 185 kts | 143° |
| 2026-05-06 00:04 | 1.77222 | 103.62125 | 2383 ft | 182 kts | 155° |
| 2026-05-06 00:04 | 1.76049 | 103.62586 | 2230 ft | 177 kts | 158° |
| 2026-05-06 00:04 | 1.74897 | 103.63007 | 2052 ft | 176 kts | 159° |
| 2026-05-06 00:05 | 1.72604 | 103.63844 | 1597 ft | 171 kts | 159° |
| 2026-05-06 00:05 | 1.71503 | 103.64243 | 1367 ft | 163 kts | 159° |
| 2026-05-06 00:05 | 1.70485 | 103.64612 | 1185 ft | 150 kts | 159° |
| 2026-05-06 00:06 | 1.69520 | 103.64964 | 971 ft | 143 kts | 159° |
| 2026-05-06 00:06 | 1.68585 | 103.65306 | 791 ft | 143 kts | 159° |
| 2026-05-06 00:06 | 1.67649 | 103.65638 | 638 ft | 142 kts | 160° |
| 2026-05-06 00:06 | 1.66696 | 103.65984 | 473 ft | 146 kts | 160° |
| 2026-05-06 00:07 | 1.65736 | 103.66336 | 242 ft | 149 kts | 160° |
| 2026-05-06 00:07 | 1.64774 | 103.66680 | 149 ft | 139 kts | 155° |
| 2026-05-06 00:07 | 1.63967 | 103.66974 | 140 ft | 97 kts | 161° |
| 2026-05-06 00:07 | 1.63573 | 103.67048 | 139 ft | 27 kts | 186° |
| 2026-05-06 00:08 | 1.63524 | 103.67042 | 139 ft | 0 kts | 188° |
| 2026-05-06 00:08 | 1.63497 | 103.67039 | 139 ft | 13 kts | 184° |
| 2026-05-06 00:08 | 1.63400 | 103.67017 | 139 ft | 14 kts | 220° |
| 2026-05-06 00:09 | 1.63367 | 103.66929 | 139 ft | 13 kts | 300° |
| 2026-05-06 00:09 | 1.63453 | 103.66885 | 139 ft | 14 kts | 342° |
| 2026-05-06 00:09 | 1.63533 | 103.66858 | 139 ft | 0 kts | 338° |
| 2026-05-06 00:09 | 1.63533 | 103.66857 | 139 ft | 0 kts | 338° |
| 2026-05-06 00:10 | 1.63551 | 103.66850 | 139 ft | 6 kts | 337° |
| 2026-05-06 00:10 | 1.63562 | 103.66808 | 139 ft | 7 kts | 251° |
| 2026-05-06 00:10 | 1.63551 | 103.66778 | 139 ft | 0 kts | 252° |